Time;durP1;ratioP1;P1;durP2;ratioP2;P2;SDS_P1;SDS_P2;PMS_P1;PMS_P2;Temp;Humidity;BMP_temperature;BMP_pressure;BME280_temperature;BME280_humidity;BME280_pressure;Samples;Min_cycle;Max_cycle;Signal;HPM_P1;HPM_P2
2022/03/21 00:01:11;;;;;;;7.38;4.05;;;;;;;8.75;43.42;102612.53;5018002;28;20120;-68
2022/03/21 00:03:36;;;;;;;8.45;4.13;;;;;;;8.94;42.62;102616.75;5019428;28;20043;-68
2022/03/21 00:06:02;;;;;;;7.72;4.00;;;;;;;8.85;42.77;102613.16;5033378;28;20116;-68
2022/03/21 00:08:28;;;;;;;8.85;3.72;;;;;;;8.95;42.26;102617.56;5031299;28;20375;-68
2022/03/21 00:10:55;;;;;;;10.38;4.45;;;;;;;8.86;43.24;102622.81;5031476;28;20401;-68
2022/03/21 00:13:22;;;;;;;8.25;3.42;;;;;;;8.95;42.70;102628.28;5028823;28;20028;-68
2022/03/21 00:15:49;;;;;;;8.07;4.22;;;;;;;8.93;42.93;102612.47;5033255;28;20041;-68
2022/03/21 00:18:16;;;;;;;7.10;3.20;;;;;;;8.91;42.82;102624.59;5031107;28;20106;-68
2022/03/21 00:20:47;;;;;;;9.50;4.03;;;;;;;8.83;43.45;102611.84;5031764;28;20040;-68
2022/03/21 00:23:13;;;;;;;6.85;3.05;;;;;;;8.82;42.85;102619.13;5031170;28;20041;-68
2022/03/21 00:25:39;;;;;;;7.43;3.42;;;;;;;8.82;42.44;102618.31;5031948;28;20029;-69
2022/03/21 00:28:07;;;;;;;10.80;3.92;;;;;;;8.75;43.33;102610.63;5028732;28;20045;-68
2022/03/21 00:30:34;;;;;;;9.88;3.50;;;;;;;8.81;43.00;102605.97;5012992;28;20049;-69
2022/03/21 00:33:00;;;;;;;8.50;3.35;;;;;;;8.82;43.19;102608.38;5026641;28;20032;-67
2022/03/21 00:35:27;;;;;;;6.20;3.13;;;;;;;8.94;42.76;102621.34;5031795;28;20402;-69
2022/03/21 00:37:53;;;;;;;10.00;4.13;;;;;;;8.86;42.89;102627.38;5029317;28;20249;-69
2022/03/21 00:40:19;;;;;;;12.48;4.40;;;;;;;8.71;43.38;102617.66;5020195;28;20076;-68
2022/03/21 00:42:46;;;;;;;11.02;4.32;;;;;;;8.79;43.02;102626.94;4998110;28;20132;-68
2022/03/21 00:45:15;;;;;;;15.50;4.10;;;;;;;8.81;43.13;102628.25;5025701;28;20041;-69
2022/03/21 00:47:41;;;;;;;8.82;3.75;;;;;;;8.68;43.54;102623.63;5014023;28;20025;-68
2022/03/21 00:50:09;;;;;;;12.20;3.83;;;;;;;8.63;43.49;102625.63;5032007;28;20148;-68
2022/03/21 00:52:43;;;;;;;5.53;2.83;;;;;;;8.57;43.64;102627.59;5029527;28;20124;-68
2022/03/21 00:55:11;;;;;;;7.03;3.50;;;;;;;8.61;43.46;102633.97;5012847;28;20073;-68
2022/03/21 00:57:40;;;;;;;10.82;3.72;;;;;;;8.56;43.48;102627.84;5029853;28;21681;-68
2022/03/21 01:00:08;;;;;;;7.88;3.72;;;;;;;8.50;44.19;102616.41;5025096;28;20038;-68
2022/03/21 01:02:35;;;;;;;9.57;3.75;;;;;;;8.50;43.93;102619.09;5012266;28;20478;-67
2022/03/21 01:05:01;;;;;;;7.68;3.47;;;;;;;8.41;44.17;102618.16;5028845;28;20049;-68
2022/03/21 01:07:26;;;;;;;9.13;4.05;;;;;;;8.46;44.40;102615.38;5028931;28;20049;-69
2022/03/21 01:09:52;;;;;;;15.65;3.20;;;;;;;8.60;43.77;102615.44;5030286;28;20037;-68
2022/03/21 01:12:17;;;;;;;9.90;4.53;;;;;;;8.40;44.26;102618.44;5029392;28;20042;-68
2022/03/21 01:14:42;;;;;;;9.07;3.63;;;;;;;8.32;44.25;102609.16;5030801;28;20160;-68
2022/03/21 01:17:08;;;;;;;7.65;3.55;;;;;;;8.32;44.31;102622.59;5029955;28;20037;-68
2022/03/21 01:19:33;;;;;;;12.63;3.33;;;;;;;8.27;44.56;102606.53;5029735;28;20041;-67
2022/03/21 01:21:58;;;;;;;6.68;3.55;;;;;;;8.27;44.62;102609.22;5030327;28;20041;-68
2022/03/21 01:24:25;;;;;;;5.88;2.85;;;;;;;8.29;44.82;102623.16;5028253;28;20045;-68
2022/03/21 01:26:50;;;;;;;10.00;3.95;;;;;;;8.24;44.31;102623.22;5012905;28;20490;-68
2022/03/21 01:29:16;;;;;;;6.60;3.90;;;;;;;8.15;44.89;102609.63;5011573;28;20034;-68
2022/03/21 01:31:41;;;;;;;8.98;4.07;;;;;;;8.19;44.69;102617.91;5029770;28;21286;-68
2022/03/21 01:34:07;;;;;;;10.52;4.18;;;;;;;8.30;44.32;102615.91;5041969;28;20041;-68
2022/03/21 01:36:32;;;;;;;7.43;3.45;;;;;;;8.19;45.00;102616.03;5034670;28;20129;-68
2022/03/21 01:38:58;;;;;;;7.85;3.83;;;;;;;8.20;44.67;102616.81;5032954;28;20033;-67
2022/03/21 01:41:23;;;;;;;5.40;3.40;;;;;;;8.15;44.47;102611.50;5030217;28;20064;-68
2022/03/21 01:44:03;;;;;;;8.90;3.60;;;;;;;8.16;45.13;102610.44;5028469;28;20038;-69
2022/03/21 01:46:30;;;;;;;7.32;3.65;;;;;;;8.16;44.86;102616.63;5030481;28;20041;-69
2022/03/21 01:48:56;;;;;;;6.93;3.60;;;;;;;8.06;45.05;102621.31;5028941;28;20549;-68
2022/03/21 01:51:22;;;;;;;6.28;3.13;;;;;;;7.92;45.30;102617.72;5012233;28;20048;-68
2022/03/21 01:56:33;;;;;;;7.70;3.53;;;;;;;8.11;45.47;102618.53;5030872;28;20041;-67
2022/03/21 01:59:00;;;;;;;7.72;3.50;;;;;;;8.02;44.92;102615.72;5028078;28;20120;-67
2022/03/21 02:01:25;;;;;;;12.50;3.80;;;;;;;8.00;45.18;102617.09;5029394;28;20478;-68
2022/03/21 02:03:51;;;;;;;10.95;3.22;;;;;;;7.99;44.87;102612.81;5025430;28;20033;-69
2022/03/21 02:06:17;;;;;;;8.23;3.60;;;;;;;7.98;45.34;102611.22;5024201;28;20021;-68
2022/03/21 02:08:43;;;;;;;11.07;4.30;;;;;;;7.94;45.27;102610.19;5029800;28;20460;-69
2022/03/21 02:11:10;;;;;;;8.68;3.72;;;;;;;7.91;44.83;102605.41;5029497;28;20037;-69
2022/03/21 02:13:36;;;;;;;8.10;3.63;;;;;;;7.84;45.23;102596.94;5028233;28;20052;-68
2022/03/21 02:16:01;;;;;;;7.22;3.25;;;;;;;7.87;46.05;102601.72;5022063;28;20456;-69
2022/03/21 02:18:28;;;;;;;8.50;3.60;;;;;;;7.69;45.57;102605.16;5029694;28;20087;-69
2022/03/21 02:20:56;;;;;;;8.02;3.25;;;;;;;7.66;45.80;102595.81;5037409;28;20504;-67
2022/03/21 02:23:38;;;;;;;7.35;3.25;;;;;;;7.74;45.86;102602.41;5028527;28;20045;-69
2022/03/21 02:26:07;;;;;;;7.35;3.53;;;;;;;7.71;45.98;102605.66;5029488;28;20037;-68
2022/03/21 02:28:33;;;;;;;5.38;2.40;;;;;;;7.67;46.30;102613.47;5028883;28;20025;-68
2022/03/21 02:30:58;;;;;;;7.65;3.38;;;;;;;7.71;45.69;102616.38;5049388;28;20123;-68
2022/03/21 02:33:26;;;;;;;6.07;2.92;;;;;;;7.80;45.79;102612.00;5029271;28;20484;-68
2022/03/21 02:35:51;;;;;;;5.85;2.90;;;;;;;7.80;45.76;102618.16;5030719;28;20118;-68
2022/03/21 02:38:19;;;;;;;11.55;3.60;;;;;;;7.76;46.11;102611.75;5018195;28;20037;-68
2022/03/21 02:40:44;;;;;;;7.60;3.10;;;;;;;7.73;46.57;102606.16;5028925;28;20528;-67
2022/03/21 02:43:10;;;;;;;7.05;2.88;;;;;;;7.70;45.45;102614.81;5037659;28;20045;-67
2022/03/21 02:45:35;;;;;;;5.65;3.22;;;;;;;7.69;45.96;102607.81;5030817;28;20067;-69
2022/03/21 02:48:01;;;;;;;8.82;3.30;;;;;;;7.56;46.39;102606.66;5009945;28;20041;-68
2022/03/21 02:50:32;;;;;;;8.40;3.10;;;;;;;7.54;46.13;102621.41;5029669;28;20044;-68
2022/03/21 02:52:58;;;;;;;;;;;;;;;7.54;47.20;102613.38;5029341;28;20029;-68
2022/03/21 02:55:23;;;;;;;7.20;2.85;;;;;;;7.54;46.80;102621.41;5025152;28;20293;-68
2022/03/21 02:57:49;;;;;;;8.52;3.17;;;;;;;7.56;46.55;102622.72;5018774;28;20033;-68
2022/03/21 03:00:14;;;;;;;7.32;3.53;;;;;;;7.62;46.34;102615.44;5039693;28;20037;-67
2022/03/21 03:02:40;;;;;;;7.80;3.63;;;;;;;7.46;45.72;102620.16;5030055;28;20033;-68
2022/03/21 03:05:06;;;;;;;6.45;3.42;;;;;;;7.52;46.96;102610.19;5033587;28;20505;-68
2022/03/21 03:07:31;;;;;;;7.20;3.03;;;;;;;7.57;45.98;102618.19;5040839;28;20034;-69
2022/03/21 03:09:56;;;;;;;10.25;3.60;;;;;;;7.46;46.33;102614.00;5013847;28;20397;-68
2022/03/21 03:12:22;;;;;;;6.13;2.97;;;;;;;7.51;46.73;102603.22;5011625;28;20036;-69
2022/03/21 03:14:47;;;;;;;6.20;3.35;;;;;;;7.60;45.86;102606.88;5023600;28;20022;-68
2022/03/21 03:17:13;;;;;;;6.63;3.13;;;;;;;7.44;45.85;102610.81;5027147;28;20398;-68
2022/03/21 03:19:38;;;;;;;8.52;3.33;;;;;;;7.38;46.38;102612.75;5012015;28;20063;-68
2022/03/21 03:22:04;;;;;;;8.73;3.55;;;;;;;7.38;46.53;102614.63;5028015;28;20443;-68
2022/03/21 03:24:31;;;;;;;5.57;3.15;;;;;;;7.30;46.58;102600.78;5010775;28;20057;-68
2022/03/21 03:26:57;;;;;;;8.60;3.55;;;;;;;7.22;47.19;102601.38;5022621;28;20112;-68
2022/03/21 03:29:22;;;;;;;7.07;3.17;;;;;;;7.28;47.56;102600.25;5032922;28;20477;-68
2022/03/21 03:31:48;;;;;;;9.80;4.15;;;;;;;7.30;47.63;102597.28;5036245;28;20083;-68
2022/03/21 03:34:13;;;;;;;6.28;3.08;;;;;;;7.32;47.49;102595.91;5036558;28;20041;-69
2022/03/21 03:36:39;;;;;;;6.93;3.10;;;;;;;7.30;46.44;102603.44;5033900;28;20120;-68
2022/03/21 03:39:05;;;;;;;12.60;3.70;;;;;;;7.27;46.28;102612.06;5015340;28;20037;-67
2022/03/21 03:41:37;;;;;;;6.43;3.03;;;;;;;7.15;47.30;102614.31;5023437;28;20794;-69
2022/03/21 03:44:03;;;;;;;7.03;2.95;;;;;;;7.03;47.79;102600.50;5033321;28;20962;-68
2022/03/21 03:46:28;;;;;;;12.65;3.55;;;;;;;7.11;47.96;102615.16;5050284;28;20045;-68
2022/03/21 03:48:54;;;;;;;8.55;3.50;;;;;;;7.13;47.88;102613.00;5035668;28;20394;-67
2022/03/21 03:51:20;;;;;;;6.35;3.15;;;;;;;7.02;46.97;102612.31;5029681;28;20052;-67
2022/03/21 03:53:45;;;;;;;7.32;3.92;;;;;;;7.02;47.32;102614.19;5038136;28;20060;-70
2022/03/21 03:56:11;;;;;;;9.48;3.75;;;;;;;6.99;47.45;102617.41;5014891;28;20049;-70
2022/03/21 03:58:37;;;;;;;6.07;3.28;;;;;;;7.03;47.35;102608.53;5031419;28;20060;-68
2022/03/21 04:01:04;;;;;;;8.90;3.42;;;;;;;7.05;47.24;102610.94;5017223;28;20038;-68
2022/03/21 04:03:46;;;;;;;5.95;2.75;;;;;;;6.99;47.94;102618.22;5036383;28;20041;-67
2022/03/21 04:06:18;;;;;;;6.38;3.40;;;;;;;6.95;47.69;102611.81;5031836;28;20042;-67
2022/03/21 04:08:45;;;;;;;5.93;3.08;;;;;;;6.92;46.87;102608.91;4997850;28;20033;-67
2022/03/21 04:11:10;;;;;;;8.05;2.97;;;;;;;6.88;47.02;102615.91;5039803;28;20617;-67
2022/03/21 04:13:36;;;;;;;10.80;3.55;;;;;;;6.83;47.46;102610.63;5031983;28;20124;-67
2022/03/21 04:16:03;;;;;;;9.05;3.45;;;;;;;6.84;48.03;102615.69;5032137;28;20061;-67
2022/03/21 04:18:28;;;;;;;6.00;2.67;;;;;;;6.77;47.31;102603.69;5028740;28;20033;-68
2022/03/21 04:20:53;;;;;;;6.28;3.20;;;;;;;6.66;48.32;102613.66;5043082;28;20037;-68
2022/03/21 04:23:19;;;;;;;6.78;3.05;;;;;;;6.70;48.63;102612.03;5032282;28;20053;-68
2022/03/21 04:25:45;;;;;;;9.05;3.72;;;;;;;6.67;48.03;102617.16;5031893;28;20048;-68
2022/03/21 04:28:11;;;;;;;8.38;3.13;;;;;;;6.61;48.18;102613.72;5030799;28;20037;-68
2022/03/21 04:30:37;;;;;;;7.13;2.95;;;;;;;6.50;48.36;102609.53;5031778;28;20044;-68
2022/03/21 04:33:04;;;;;;;7.88;3.00;;;;;;;6.46;48.55;102618.38;5018416;28;20056;-68
2022/03/21 04:35:29;;;;;;;5.38;2.92;;;;;;;6.44;48.51;102610.66;5015465;28;20072;-68
2022/03/21 04:37:55;;;;;;;9.65;3.67;;;;;;;6.64;48.38;102621.19;5019485;28;20503;-68
2022/03/21 04:40:21;;;;;;;8.88;3.67;;;;;;;6.45;48.23;102612.22;5016182;28;20155;-68
2022/03/21 04:42:46;;;;;;;8.02;3.17;;;;;;;6.44;48.06;102607.97;5036297;28;20116;-68
2022/03/21 04:45:11;;;;;;;4.80;2.85;;;;;;;6.51;47.31;102600.41;5036331;28;21032;-68
2022/03/21 04:47:37;;;;;;;6.63;3.33;;;;;;;6.46;48.31;102597.78;5031215;28;20038;-68
2022/03/21 04:50:03;;;;;;;10.35;3.53;;;;;;;6.45;48.16;102606.88;5031414;28;20041;-68
2022/03/21 04:52:28;;;;;;;5.90;2.88;;;;;;;6.44;48.40;102607.16;5032172;28;20402;-69
2022/03/21 04:54:54;;;;;;;5.70;2.83;;;;;;;6.56;48.02;102612.97;5031563;28;20033;-68
2022/03/21 04:57:20;;;;;;;8.23;2.97;;;;;;;6.61;47.58;102612.91;5021525;28;20118;-68
2022/03/21 04:59:46;;;;;;;6.43;3.80;;;;;;;6.49;48.12;102618.63;5015962;28;20029;-68
2022/03/21 05:02:11;;;;;;;4.15;2.92;;;;;;;6.49;48.04;102621.31;5002708;28;20038;-68
2022/03/21 05:04:37;;;;;;;6.38;2.90;;;;;;;6.43;48.43;102625.09;5030220;28;20037;-68
2022/03/21 05:07:03;;;;;;;9.73;3.38;;;;;;;6.47;47.98;102623.44;5022748;28;20788;-68
2022/03/21 05:09:28;;;;;;;6.18;2.95;;;;;;;6.46;48.88;102632.56;5023261;28;20479;-68
2022/03/21 05:11:53;;;;;;;6.63;3.08;;;;;;;6.57;48.31;102635.97;5023899;28;20026;-68
2022/03/21 05:14:19;;;;;;;6.97;3.00;;;;;;;6.54;48.26;102631.19;5019620;28;20292;-69
2022/03/21 05:16:46;;;;;;;7.50;3.00;;;;;;;6.54;47.85;102642.69;5016667;28;20033;-68
2022/03/21 05:19:12;;;;;;;10.68;3.95;;;;;;;6.58;48.42;102641.03;5034723;28;20036;-68
2022/03/21 05:21:38;;;;;;;6.03;2.90;;;;;;;6.62;48.41;102649.31;5031458;28;20032;-67
2022/03/21 05:32:16;;;;;;;7.45;3.13;;;;;;;6.43;48.77;102659.88;5019162;28;20156;-68
2022/03/21 05:37:26;;;;;;;6.32;2.72;;;;;;;6.42;48.61;102660.97;5044520;28;20040;-68
2022/03/21 05:42:35;;;;;;;7.03;2.60;;;;;;;6.41;48.92;102656.66;5013933;28;20045;-68
2022/03/21 05:45:00;;;;;;;5.38;2.85;;;;;;;6.41;48.08;102645.97;5012292;28;20034;-68
2022/03/21 05:47:25;;;;;;;6.13;2.53;;;;;;;6.27;48.84;102642.31;5011830;28;20100;-68
2022/03/21 05:49:51;;;;;;;8.50;2.97;;;;;;;6.41;49.28;102654.00;5016467;28;20063;-68
2022/03/21 05:52:17;;;;;;;9.15;3.65;;;;;;;6.44;48.92;102653.47;5028411;28;20390;-68
2022/03/21 05:54:43;;;;;;;6.50;3.47;;;;;;;6.53;48.16;102651.78;5004530;28;20033;-68
2022/03/21 05:57:08;;;;;;;8.23;3.25;;;;;;;6.41;48.63;102643.28;5013236;28;20044;-68
2022/03/21 06:02:17;;;;;;;7.00;3.10;;;;;;;6.47;48.55;102652.09;5025613;28;20095;-69
2022/03/21 06:04:43;;;;;;;9.15;3.50;;;;;;;6.58;48.18;102659.00;5029477;28;20478;-68
2022/03/21 06:07:11;;;;;;;7.57;3.05;;;;;;;6.57;47.81;102652.03;5024094;28;20510;-68
2022/03/21 06:09:36;;;;;;;7.80;3.22;;;;;;;6.60;47.89;102659.50;5029590;28;20309;-68
2022/03/21 06:12:02;;;;;;;4.55;2.40;;;;;;;6.64;48.17;102669.38;5029741;28;20045;-68
2022/03/21 06:14:28;;;;;;;6.70;3.35;;;;;;;6.64;47.88;102663.22;5027261;28;20048;-68
2022/03/21 06:16:53;;;;;;;6.53;2.70;;;;;;;6.64;47.87;102668.59;5028024;28;20045;-68
2022/03/21 06:19:19;;;;;;;8.73;3.15;;;;;;;6.57;48.38;102663.53;5028357;28;20041;-68
2022/03/21 06:21:44;;;;;;;8.13;3.58;;;;;;;6.64;48.40;102658.66;5013060;28;20041;-68
2022/03/21 06:24:13;;;;;;;5.00;2.63;;;;;;;6.67;48.81;102663.47;5043266;28;20784;-67
2022/03/21 06:26:42;;;;;;;4.53;2.40;;;;;;;6.77;48.04;102674.13;5034787;28;20049;-68
2022/03/21 06:29:08;;;;;;;5.25;3.13;;;;;;;6.76;48.53;102677.03;5010294;28;20151;-67
2022/03/21 06:31:33;;;;;;;6.32;2.97;;;;;;;6.81;48.44;102669.00;5039459;28;20570;-68
2022/03/21 06:33:59;;;;;;;8.90;2.97;;;;;;;6.81;48.34;102674.34;5027316;28;20109;-68
2022/03/21 06:36:24;;;;;;;10.98;3.47;;;;;;;6.90;48.43;102665.44;5028121;28;20033;-68
2022/03/21 06:38:50;;;;;;;7.93;3.47;;;;;;;7.00;48.20;102668.03;5028639;28;20048;-68
2022/03/21 06:41:16;;;;;;;7.18;3.75;;;;;;;7.02;48.17;102676.59;5028183;28;20038;-66
2022/03/21 06:43:42;;;;;;;10.15;3.20;;;;;;;7.06;47.64;102677.63;5033048;28;20108;-69
2022/03/21 06:46:08;;;;;;;10.52;3.70;;;;;;;6.97;46.95;102692.69;5030801;28;20117;-69
2022/03/21 06:48:34;;;;;;;8.60;3.53;;;;;;;6.90;47.40;102689.53;5008204;28;20129;-68
2022/03/21 06:50:59;;;;;;;6.72;3.28;;;;;;;6.81;47.88;102690.41;5024174;28;20049;-67
2022/03/21 06:53:25;;;;;;;4.68;2.53;;;;;;;6.82;48.38;102692.81;5013125;28;20014;-68
2022/03/21 06:55:50;;;;;;;6.82;3.22;;;;;;;6.89;47.92;102693.28;5010820;28;20037;-69
2022/03/21 06:58:16;;;;;;;6.15;3.42;;;;;;;7.00;47.85;102692.16;5008340;28;20033;-69
2022/03/21 07:00:43;;;;;;;7.72;3.60;;;;;;;7.14;47.96;102682.34;5016142;28;20426;-69
2022/03/21 07:03:09;;;;;;;7.00;3.45;;;;;;;7.20;47.49;102689.28;5020053;28;20033;-71
2022/03/21 07:05:36;;;;;;;10.73;3.72;;;;;;;7.38;47.26;102695.00;5014525;28;20512;-71
2022/03/21 07:08:03;;;;;;;10.82;3.88;;;;;;;7.28;47.77;102695.91;5014355;28;20049;-68
2022/03/21 07:10:28;;;;;;;7.70;3.13;;;;;;;7.41;47.90;102692.59;5014066;28;20549;-68
2022/03/21 07:12:54;;;;;;;6.03;3.05;;;;;;;7.52;47.19;102690.59;5010760;28;20088;-68
2022/03/21 07:15:19;;;;;;;10.73;3.95;;;;;;;7.44;47.55;102699.25;5009790;28;20040;-69
2022/03/21 07:17:45;;;;;;;5.07;3.22;;;;;;;7.47;47.52;102693.34;5035469;28;20335;-69
2022/03/21 07:20:11;;;;;;;6.75;3.10;;;;;;;7.61;47.17;102699.59;5037656;28;20033;-70
2022/03/21 07:22:37;;;;;;;9.93;3.72;;;;;;;7.65;47.25;102704.13;5032143;28;20107;-69
2022/03/21 07:25:03;;;;;;;10.57;3.55;;;;;;;7.52;46.75;102702.13;5022992;28;20033;-68
2022/03/21 07:27:29;;;;;;;7.13;3.53;;;;;;;7.68;46.78;102705.44;5011031;28;20029;-68
2022/03/21 07:29:54;;;;;;;9.23;3.67;;;;;;;7.88;46.90;102702.53;5016566;28;20410;-69
2022/03/21 07:32:19;;;;;;;6.20;3.75;;;;;;;8.00;46.52;102703.75;5007587;28;20030;-70
2022/03/21 07:34:45;;;;;;;9.63;3.38;;;;;;;8.21;45.68;102717.69;5017771;28;20052;-68
2022/03/21 07:37:11;;;;;;;5.72;3.03;;;;;;;8.35;45.32;102707.91;5016502;28;20472;-68
2022/03/21 07:39:37;;;;;;;8.38;3.22;;;;;;;8.51;45.46;102714.66;5016310;28;20049;-71
2022/03/21 07:42:03;;;;;;;5.97;3.60;;;;;;;8.66;45.55;102713.63;5022937;28;20176;-68
2022/03/21 07:47:22;;;;;;;8.73;3.67;;;;;;;8.96;44.61;102729.31;5044151;28;20047;-69
2022/03/21 07:49:52;;;;;;;10.05;3.80;;;;;;;9.08;44.29;102714.34;5030056;28;20029;-68
2022/03/21 07:52:18;;;;;;;9.82;3.58;;;;;;;9.27;43.30;102725.03;5030971;28;20393;-68
2022/03/21 07:54:51;;;;;;;8.38;3.30;;;;;;;9.42;43.31;102726.69;5029864;28;20117;-68
2022/03/21 07:57:17;;;;;;;8.48;3.88;;;;;;;9.47;42.77;102727.38;5013035;28;20156;-68
2022/03/21 07:59:43;;;;;;;8.15;3.30;;;;;;;9.36;43.28;102717.91;5028196;28;20518;-68
2022/03/21 08:02:08;;;;;;;6.55;3.28;;;;;;;9.30;42.83;102720.97;5029264;28;20112;-69
2022/03/21 08:04:34;;;;;;;7.70;3.00;;;;;;;9.40;42.83;102713.53;5031315;28;20493;-69
2022/03/21 08:06:59;;;;;;;9.30;4.03;;;;;;;9.56;42.77;102714.84;5028204;28;20033;-72
2022/03/21 08:09:27;;;;;;;5.50;2.92;;;;;;;9.66;42.25;102719.25;5029177;28;20402;-72
2022/03/21 08:11:54;;;;;;;10.80;4.15;;;;;;;9.86;42.50;102724.25;5026340;28;20105;-68
2022/03/21 08:14:20;;;;;;;8.93;3.83;;;;;;;9.96;41.59;102708.72;5045447;28;20401;-69
2022/03/21 08:16:45;;;;;;;5.82;2.88;;;;;;;10.13;41.36;102712.72;5037574;28;20029;-69
2022/03/21 08:19:11;;;;;;;10.65;4.10;;;;;;;10.20;41.00;102707.72;5018376;28;20104;-71
2022/03/21 08:21:36;;;;;;;8.60;3.42;;;;;;;10.15;41.53;102722.09;5033305;28;20069;-68
2022/03/21 08:24:03;;;;;;;8.55;3.88;;;;;;;10.23;41.12;102707.94;5026501;28;20043;-68
2022/03/21 08:26:29;;;;;;;8.85;3.80;;;;;;;10.30;41.68;102713.69;5016154;28;20116;-68
2022/03/21 08:28:54;;;;;;;7.32;3.55;;;;;;;10.50;40.61;102707.88;5033355;28;20128;-67
2022/03/21 08:31:19;;;;;;;8.25;3.28;;;;;;;10.61;41.09;102719.19;5007235;28;20088;-71
2022/03/21 08:33:45;;;;;;;10.30;4.00;;;;;;;10.73;39.82;102716.78;5026166;28;20075;-68
2022/03/21 08:36:12;;;;;;;8.02;3.53;;;;;;;10.77;39.88;102710.50;5027601;28;20540;-68
2022/03/21 08:38:38;;;;;;;10.10;4.07;;;;;;;10.86;39.93;102710.53;5024357;28;20040;-68
2022/03/21 08:41:04;;;;;;;10.40;4.82;;;;;;;11.01;39.97;102704.81;5021156;28;20036;-72
2022/03/21 08:43:29;;;;;;;10.48;3.97;;;;;;;11.02;40.14;102703.69;5020533;28;20018;-68
2022/03/21 08:45:55;;;;;;;10.35;3.97;;;;;;;11.18;39.86;102698.72;5012528;28;20080;-69
2022/03/21 08:49:23;;;;;;;7.22;3.70;;;;;;;11.30;39.96;102704.34;4996753;28;20124;-68
2022/03/21 08:51:06;;;;;;;7.38;3.72;;;;;;;11.29;39.13;102698.16;5027078;28;20033;-68
2022/03/21 08:53:32;;;;;;;10.82;4.35;;;;;;;11.37;39.68;102694.72;5030083;28;20690;-68
2022/03/21 08:55:57;;;;;;;7.15;3.88;;;;;;;11.23;39.26;102690.50;5031108;28;20033;-68
2022/03/21 08:58:23;;;;;;;11.85;4.20;;;;;;;11.47;40.07;102682.84;5030632;28;20052;-68
2022/03/21 09:00:48;;;;;;;9.00;4.13;;;;;;;11.59;38.35;102691.19;5027447;28;20079;-68
2022/03/21 09:03:14;;;;;;;9.18;3.58;;;;;;;11.67;39.19;102693.16;5023456;28;20045;-72
2022/03/21 09:05:59;;;;;;;9.50;3.60;;;;;;;11.73;39.31;102686.47;5018431;28;20044;-68
2022/03/21 09:08:25;;;;;;;7.32;3.45;;;;;;;11.89;40.30;102684.97;4928510;29;20509;-70
2022/03/21 09:10:52;;;;;;;9.55;4.15;;;;;;;12.02;39.40;102683.25;4929680;29;20082;-68
2022/03/21 09:13:17;;;;;;;11.98;4.25;;;;;;;12.22;38.93;102680.75;4939258;29;20046;-68
2022/03/21 09:15:43;;;;;;;8.82;4.03;;;;;;;12.29;39.83;102686.47;4930594;29;20031;-68
2022/03/21 09:18:09;;;;;;;8.43;3.67;;;;;;;12.33;40.62;102678.56;4928026;29;20047;-69
2022/03/21 09:20:35;;;;;;;9.93;4.07;;;;;;;12.55;40.35;102681.91;4923934;29;20150;-71
2022/03/21 09:23:00;;;;;;;8.68;3.50;;;;;;;13.04;39.26;102693.34;4919169;29;20043;-68
2022/03/21 09:25:25;;;;;;;12.23;3.80;;;;;;;12.94;37.72;102689.03;4924432;29;20481;-69
2022/03/21 09:27:51;;;;;;;9.07;4.18;;;;;;;12.99;37.68;102709.72;4908353;29;20040;-68
2022/03/21 09:30:16;;;;;;;8.52;3.85;;;;;;;13.10;36.97;102683.97;4932724;29;20028;-68
2022/03/21 09:32:42;;;;;;;8.02;3.58;;;;;;;13.13;36.97;102680.59;4927999;29;20508;-68
2022/03/21 09:35:08;;;;;;;6.57;3.60;;;;;;;13.10;36.61;102671.25;4927428;29;20043;-69
2022/03/21 09:37:34;;;;;;;10.43;3.78;;;;;;;13.51;36.26;102678.75;4922664;29;20043;-70
2022/03/21 09:40:00;;;;;;;8.73;3.90;;;;;;;13.68;35.85;102680.59;4924782;29;20063;-69
2022/03/21 09:42:26;;;;;;;8.77;4.20;;;;;;;13.87;35.94;102686.38;4933996;29;20036;-68
2022/03/21 09:44:55;;;;;;;8.88;4.00;;;;;;;13.97;35.67;102681.41;4955775;28;20314;-68
2022/03/21 09:50:11;;;;;;;8.48;3.80;;;;;;;13.99;35.76;102695.41;5024311;28;20067;-69
2022/03/21 09:52:38;;;;;;;8.23;4.13;;;;;;;14.07;35.75;102677.53;5025147;28;20028;-69
2022/03/21 09:55:05;;;;;;;5.97;3.17;;;;;;;13.96;36.04;102671.66;5006621;28;20026;-68
2022/03/21 09:57:31;;;;;;;8.73;3.40;;;;;;;13.82;36.82;102671.09;5017297;28;20442;-69
2022/03/21 09:59:58;;;;;;;6.35;3.65;;;;;;;14.04;36.32;102667.31;4979718;28;20521;-70
2022/03/21 10:02:24;;;;;;;10.20;4.18;;;;;;;14.07;36.54;102669.41;5023424;28;20040;-69
2022/03/21 10:04:51;;;;;;;6.68;3.78;;;;;;;14.35;36.20;102665.88;5023831;28;20052;-69
2022/03/21 10:07:25;;;;;;;9.82;4.85;;;;;;;14.39;37.41;102669.50;5025947;28;20481;-68
2022/03/21 10:10:12;;;;;;;8.88;3.72;;;;;;;14.65;36.56;102672.03;5027353;28;20044;-68
2022/03/21 10:12:38;;;;;;;9.48;3.92;;;;;;;14.62;37.29;102675.38;5024060;28;20575;-70
2022/03/21 10:15:07;;;;;;;10.80;4.30;;;;;;;14.60;36.70;102674.13;5019145;28;20021;-69
2022/03/21 10:17:33;;;;;;;7.68;3.35;;;;;;;14.75;37.44;102677.03;5020750;28;20034;-68
2022/03/21 10:19:59;;;;;;;10.00;4.10;;;;;;;15.00;35.98;102673.25;5015975;28;20083;-68
2022/03/21 10:22:33;;;;;;;9.73;3.58;;;;;;;14.89;36.19;102679.44;5020962;28;20044;-70
2022/03/21 10:25:04;;;;;;;9.25;4.25;;;;;;;14.92;35.69;102673.38;5017967;28;20048;-67
2022/03/21 10:27:34;;;;;;;10.75;4.10;;;;;;;14.75;36.26;102682.44;5012152;28;20057;-69
2022/03/21 10:30:05;;;;;;;8.15;3.60;;;;;;;14.76;36.24;102677.81;5020623;28;20051;-70
2022/03/21 10:32:34;;;;;;;9.15;4.20;;;;;;;14.80;36.35;102674.13;5005558;28;20429;-69
2022/03/21 10:35:01;;;;;;;9.88;4.35;;;;;;;14.89;36.82;102676.72;5015626;28;20029;-69
2022/03/21 10:37:40;;;;;;;9.35;4.15;;;;;;;14.82;35.77;102681.91;5015873;28;20091;-68
2022/03/21 10:40:15;;;;;;;7.18;3.45;;;;;;;14.93;34.92;102678.44;4990748;28;20136;-69
2022/03/21 10:43:04;;;;;;;8.07;3.80;;;;;;;14.95;34.82;102678.13;5004980;28;20037;-68
2022/03/21 10:45:40;;;;;;;11.75;4.78;;;;;;;14.86;35.35;102672.00;5015831;28;20124;-68
2022/03/21 10:48:08;;;;;;;9.73;4.05;;;;;;;14.95;36.29;102672.69;5013520;28;20033;-69
2022/03/21 10:50:36;;;;;;;9.98;4.18;;;;;;;15.00;35.97;102667.06;5013200;28;20040;-69
2022/03/21 10:53:21;;;;;;;9.73;4.28;;;;;;;15.18;36.07;102673.88;5019718;28;20386;-69
2022/03/21 10:55:59;;;;;;;8.63;3.78;;;;;;;14.89;35.82;102660.44;5018912;28;20430;-69
2022/03/21 10:58:37;;;;;;;8.18;3.97;;;;;;;15.01;35.64;102664.00;5015427;28;20494;-69
2022/03/21 11:01:29;;;;;;;7.32;3.80;;;;;;;15.08;35.59;102656.09;5010006;28;20041;-69
2022/03/21 11:04:00;;;;;;;8.20;3.55;;;;;;;15.19;36.30;102659.97;5012542;28;20053;-69
2022/03/21 11:06:27;;;;;;;7.80;4.20;;;;;;;15.50;36.24;102654.06;5012565;28;20078;-69
2022/03/21 11:08:54;;;;;;;9.68;3.95;;;;;;;15.60;35.51;102659.03;5004685;28;20032;-69
2022/03/21 11:11:20;;;;;;;9.98;3.70;;;;;;;15.63;34.37;102655.66;5000800;28;20073;-69
2022/03/21 11:13:47;;;;;;;8.60;3.50;;;;;;;15.58;34.83;102661.28;5012904;28;20064;-68
2022/03/21 11:16:16;;;;;;;10.32;4.00;;;;;;;15.70;34.04;102658.59;5015977;28;20491;-68
2022/03/21 11:18:45;;;;;;;8.85;4.20;;;;;;;15.69;34.09;102658.94;5017448;28;20075;-69
2022/03/21 11:21:13;;;;;;;7.32;3.65;;;;;;;15.59;33.63;102652.03;5004760;28;20133;-69
2022/03/21 11:23:39;;;;;;;10.60;3.70;;;;;;;15.69;33.76;102662.44;5015040;28;20037;-69
2022/03/21 11:26:28;;;;;;;10.15;4.32;;;;;;;15.57;34.56;102662.44;5014147;28;20095;-68
2022/03/21 11:29:28;;;;;;;7.75;3.72;;;;;;;15.49;33.93;102659.81;5010106;28;20053;-69
2022/03/21 11:32:06;;;;;;;13.63;3.72;;;;;;;15.44;34.40;102660.84;5002581;28;20033;-68
2022/03/21 11:34:42;;;;;;;8.63;3.65;;;;;;;15.52;34.93;102661.88;5019213;28;20025;-69
2022/03/21 11:37:27;;;;;;;7.95;3.83;;;;;;;15.64;35.29;102661.88;4996785;28;20056;-69
2022/03/21 11:40:31;;;;;;;8.23;3.60;;;;;;;15.86;34.80;102656.78;5015940;28;20510;-69
2022/03/21 11:43:15;;;;;;;6.57;3.42;;;;;;;15.91;34.44;102647.63;5013134;28;20049;-69
2022/03/21 11:45:40;;;;;;;7.55;3.72;;;;;;;16.11;33.65;102654.81;5012758;28;20042;-68
2022/03/21 11:48:18;;;;;;;11.88;4.40;;;;;;;15.96;33.71;102637.31;5011520;28;20038;-69
2022/03/21 11:50:48;;;;;;;10.18;4.22;;;;;;;16.01;33.88;102637.06;5019200;28;20030;-69
2022/03/21 11:53:15;;;;;;;12.27;4.03;;;;;;;16.14;33.58;102643.28;5012282;28;20026;-69
2022/03/21 11:55:42;;;;;;;11.05;4.63;;;;;;;16.08;33.17;102653.59;5005901;28;20029;-69